DLH4HF EDDK-EDDM
Flight info
| Callsign | DLH4HF |
|---|---|
| Flight time | 0h 52m |
| Altitude | 33000 |
| Route | KUMIK1R/31R KUMIK Y854 BOMBI T104 ROKIL ROKIL1B |
| Aircraft | A320/M-SDE2E3FGIJ1LORWXYZ/HB1 |
Departure
| Time | 2026-05-07 12:16 |
|---|---|
| Airport | Cologne Bonn Airport (EDDK) |
Arrival
| Time | 2026-05-07 13:09 |
|---|---|
| Airport | Munich Airport (EDDM) |
| Time | Latitude | Longitude | Altitude | Speed | Heading |
|---|---|---|---|---|---|
| 2026-05-07 11:49 | 50.87932 | 7.12304 | 232 ft | 0 kts | 175° |
| 2026-05-07 12:06 | 50.87936 | 7.12304 | 232 ft | 3 kts | 175° |
| 2026-05-07 12:06 | 50.87962 | 7.12304 | 232 ft | 4 kts | 188° |
| 2026-05-07 12:06 | 50.87988 | 7.12313 | 234 ft | 4 kts | 202° |
| 2026-05-07 12:06 | 50.88013 | 7.12332 | 234 ft | 4 kts | 209° |
| 2026-05-07 12:07 | 50.88035 | 7.12346 | 232 ft | 2 kts | 175° |
| 2026-05-07 12:07 | 50.88032 | 7.12358 | 235 ft | 4 kts | 112° |
| 2026-05-07 12:07 | 50.88032 | 7.12398 | 235 ft | 4 kts | 96° |
| 2026-05-07 12:07 | 50.88015 | 7.12424 | 232 ft | 4 kts | 154° |
| 2026-05-07 12:08 | 50.87998 | 7.12429 | 232 ft | 3 kts | 173° |
| 2026-05-07 12:09 | 50.87996 | 7.12438 | 232 ft | 3 kts | 128° |
| 2026-05-07 12:10 | 50.87958 | 7.12529 | 232 ft | 15 kts | 122° |
| 2026-05-07 12:10 | 50.87897 | 7.12611 | 232 ft | 19 kts | 164° |
| 2026-05-07 12:10 | 50.87807 | 7.12645 | 232 ft | 13 kts | 141° |
| 2026-05-07 12:10 | 50.87736 | 7.12747 | 232 ft | 15 kts | 138° |
| 2026-05-07 12:11 | 50.87636 | 7.12895 | 232 ft | 25 kts | 136° |
| 2026-05-07 12:11 | 50.87488 | 7.13105 | 232 ft | 29 kts | 138° |
| 2026-05-07 12:11 | 50.87338 | 7.13329 | 232 ft | 30 kts | 139° |
| 2026-05-07 12:11 | 50.87205 | 7.13516 | 236 ft | 24 kts | 137° |
| 2026-05-07 12:12 | 50.87090 | 7.13683 | 240 ft | 21 kts | 137° |
| 2026-05-07 12:12 | 50.86991 | 7.13825 | 244 ft | 17 kts | 137° |
| 2026-05-07 12:12 | 50.86919 | 7.13930 | 250 ft | 11 kts | 137° |
| 2026-05-07 12:12 | 50.86878 | 7.13988 | 254 ft | 8 kts | 137° |
| 2026-05-07 12:13 | 50.86769 | 7.14126 | 255 ft | 28 kts | 165° |
| 2026-05-07 12:13 | 50.86708 | 7.14170 | 257 ft | 8 kts | 133° |
| 2026-05-07 12:13 | 50.86657 | 7.14249 | 261 ft | 13 kts | 137° |
| 2026-05-07 12:13 | 50.86568 | 7.14379 | 262 ft | 24 kts | 137° |
| 2026-05-07 12:14 | 50.86431 | 7.14576 | 270 ft | 25 kts | 137° |
| 2026-05-07 12:14 | 50.86306 | 7.14756 | 277 ft | 23 kts | 137° |
| 2026-05-07 12:14 | 50.86194 | 7.14920 | 284 ft | 22 kts | 137° |
| 2026-05-07 12:14 | 50.86075 | 7.15091 | 288 ft | 24 kts | 132° |
| 2026-05-07 12:15 | 50.86083 | 7.15325 | 292 ft | 24 kts | 37° |
| 2026-05-07 12:15 | 50.86246 | 7.15327 | 290 ft | 26 kts | 347° |
| 2026-05-07 12:15 | 50.86433 | 7.15227 | 283 ft | 32 kts | 332° |
| 2026-05-07 12:15 | 50.86710 | 7.14846 | 270 ft | 86 kts | 317° |
| 2026-05-07 12:16 | 50.87311 | 7.13976 | 243 ft | 145 kts | 317° |
| 2026-05-07 12:16 | 50.88117 | 7.12828 | 691 ft | 157 kts | 318° |
| 2026-05-07 12:16 | 50.88959 | 7.11695 | 1456 ft | 160 kts | 324° |
| 2026-05-07 12:16 | 50.90066 | 7.11132 | 1789 ft | 184 kts | 1° |
| 2026-05-07 12:17 | 50.91356 | 7.11837 | 2224 ft | 206 kts | 26° |
| 2026-05-07 12:17 | 50.92604 | 7.12951 | 3134 ft | 209 kts | 28° |
| 2026-05-07 12:17 | 50.93693 | 7.14551 | 3883 ft | 222 kts | 52° |
| 2026-05-07 12:17 | 50.94467 | 7.16836 | 4370 ft | 247 kts | 60° |
| 2026-05-07 12:18 | 50.95249 | 7.19374 | 5030 ft | 261 kts | 61° |
| 2026-05-07 12:18 | 50.96043 | 7.21973 | 5995 ft | 264 kts | 61° |
| 2026-05-07 12:18 | 50.96860 | 7.24597 | 6884 ft | 267 kts | 60° |
| 2026-05-07 12:18 | 50.97709 | 7.27255 | 7696 ft | 273 kts | 61° |
| 2026-05-07 12:19 | 50.98565 | 7.29948 | 8627 ft | 275 kts | 61° |
| 2026-05-07 12:19 | 50.99441 | 7.32695 | 9450 ft | 281 kts | 61° |
| 2026-05-07 12:19 | 51.00324 | 7.35472 | 10298 ft | 284 kts | 62° |
| 2026-05-07 12:19 | 51.01114 | 7.38483 | 10646 ft | 308 kts | 73° |
| 2026-05-07 12:20 | 51.01492 | 7.41896 | 11021 ft | 327 kts | 86° |
| 2026-05-07 12:20 | 51.01354 | 7.45546 | 11691 ft | 336 kts | 99° |
| 2026-05-07 12:20 | 51.00736 | 7.49150 | 12419 ft | 342 kts | 107° |
| 2026-05-07 12:20 | 51.00023 | 7.52777 | 13163 ft | 346 kts | 107° |
| 2026-05-07 12:21 | 50.99301 | 7.56457 | 13880 ft | 351 kts | 107° |
| 2026-05-07 12:21 | 50.98568 | 7.60180 | 14538 ft | 355 kts | 107° |
| 2026-05-07 12:21 | 50.97826 | 7.63941 | 15205 ft | 359 kts | 107° |
| 2026-05-07 12:21 | 50.97077 | 7.67735 | 15871 ft | 362 kts | 107° |
| 2026-05-07 12:22 | 50.96322 | 7.71562 | 16547 ft | 365 kts | 107° |
| 2026-05-07 12:22 | 50.95560 | 7.75421 | 17225 ft | 368 kts | 107° |
| 2026-05-07 12:22 | 50.94789 | 7.79310 | 17909 ft | 371 kts | 108° |
| 2026-05-07 12:22 | 50.93761 | 7.83072 | 18551 ft | 374 kts | 119° |
| 2026-05-07 12:23 | 50.92359 | 7.86559 | 19124 ft | 376 kts | 124° |
| 2026-05-07 12:23 | 50.90906 | 7.90026 | 19694 ft | 379 kts | 124° |
| 2026-05-07 12:23 | 50.89443 | 7.93523 | 20259 ft | 382 kts | 123° |
| 2026-05-07 12:23 | 50.87967 | 7.97050 | 20818 ft | 385 kts | 123° |
| 2026-05-07 12:24 | 50.86482 | 8.00591 | 21371 ft | 388 kts | 124° |
| 2026-05-07 12:24 | 50.84965 | 8.04138 | 21878 ft | 391 kts | 127° |
| 2026-05-07 12:24 | 50.83154 | 8.07353 | 22401 ft | 393 kts | 137° |
| 2026-05-07 12:24 | 50.80997 | 8.10039 | 22909 ft | 396 kts | 147° |
| 2026-05-07 12:25 | 50.78671 | 8.12382 | 23417 ft | 399 kts | 148° |
| 2026-05-07 12:25 | 50.76320 | 8.14740 | 23872 ft | 401 kts | 148° |
| 2026-05-07 12:25 | 50.73955 | 8.17109 | 24301 ft | 404 kts | 148° |
| 2026-05-07 12:25 | 50.71574 | 8.19493 | 24730 ft | 406 kts | 148° |
| 2026-05-07 12:26 | 50.69184 | 8.21894 | 25155 ft | 408 kts | 148° |
| 2026-05-07 12:26 | 50.66814 | 8.24280 | 25561 ft | 411 kts | 148° |
| 2026-05-07 12:26 | 50.64372 | 8.26743 | 25977 ft | 413 kts | 148° |
| 2026-05-07 12:26 | 50.61971 | 8.29162 | 26383 ft | 415 kts | 148° |
| 2026-05-07 12:27 | 50.59527 | 8.31612 | 26764 ft | 418 kts | 148° |
| 2026-05-07 12:27 | 50.57068 | 8.34066 | 27161 ft | 420 kts | 148° |
| 2026-05-07 12:27 | 50.54588 | 8.36535 | 27550 ft | 422 kts | 148° |
| 2026-05-07 12:27 | 50.52098 | 8.39011 | 27943 ft | 424 kts | 148° |
| 2026-05-07 12:28 | 50.49599 | 8.41490 | 28333 ft | 427 kts | 148° |
| 2026-05-07 12:28 | 50.47086 | 8.43981 | 28700 ft | 429 kts | 148° |
| 2026-05-07 12:28 | 50.44553 | 8.46496 | 29079 ft | 431 kts | 148° |
| 2026-05-07 12:28 | 50.42011 | 8.49014 | 29444 ft | 433 kts | 148° |
| 2026-05-07 12:29 | 50.39452 | 8.51540 | 29809 ft | 436 kts | 148° |
| 2026-05-07 12:29 | 50.36870 | 8.54048 | 30142 ft | 438 kts | 150° |
| 2026-05-07 12:29 | 50.34217 | 8.56437 | 30418 ft | 440 kts | 152° |
| 2026-05-07 12:29 | 50.31518 | 8.58715 | 30682 ft | 442 kts | 153° |
| 2026-05-07 12:30 | 50.28778 | 8.60944 | 30952 ft | 445 kts | 153° |
| 2026-05-07 12:30 | 50.26047 | 8.63140 | 31212 ft | 447 kts | 154° |
| 2026-05-07 12:30 | 50.23281 | 8.65376 | 31460 ft | 449 kts | 153° |
| 2026-05-07 12:30 | 50.20507 | 8.67654 | 31817 ft | 449 kts | 153° |
| 2026-05-07 12:31 | 50.17747 | 8.69947 | 32193 ft | 449 kts | 153° |
| 2026-05-07 12:31 | 50.14994 | 8.72247 | 32561 ft | 448 kts | 152° |
| 2026-05-07 12:31 | 50.12255 | 8.74540 | 32930 ft | 448 kts | 152° |
| 2026-05-07 12:31 | 50.09507 | 8.76838 | 33040 ft | 444 kts | 152° |
| 2026-05-07 12:32 | 50.06837 | 8.79117 | 33053 ft | 433 kts | 149° |
| 2026-05-07 12:32 | 50.02188 | 8.84957 | 33047 ft | 429 kts | 138° |
| 2026-05-07 12:33 | 49.95578 | 8.94305 | 33039 ft | 428 kts | 138° |
| 2026-05-07 12:33 | 49.91167 | 9.00527 | 33036 ft | 428 kts | 138° |
| 2026-05-07 12:34 | 49.86748 | 9.06731 | 33028 ft | 429 kts | 139° |
| 2026-05-07 12:34 | 49.82353 | 9.12885 | 33023 ft | 428 kts | 139° |
| 2026-05-07 12:35 | 49.77895 | 9.19114 | 33020 ft | 429 kts | 139° |
| 2026-05-07 12:35 | 49.73495 | 9.25256 | 33018 ft | 428 kts | 139° |
| 2026-05-07 12:36 | 49.69059 | 9.31430 | 33014 ft | 429 kts | 139° |
| 2026-05-07 12:36 | 49.64624 | 9.37580 | 33013 ft | 429 kts | 139° |
| 2026-05-07 12:37 | 49.60357 | 9.44020 | 33016 ft | 429 kts | 131° |
| 2026-05-07 12:37 | 49.56424 | 9.50955 | 33012 ft | 430 kts | 132° |
| 2026-05-07 12:38 | 49.52509 | 9.57835 | 33012 ft | 430 kts | 132° |
| 2026-05-07 12:38 | 49.48554 | 9.64750 | 33009 ft | 430 kts | 132° |
| 2026-05-07 12:39 | 49.44588 | 9.71653 | 33008 ft | 431 kts | 132° |
| 2026-05-07 12:39 | 49.40615 | 9.78546 | 33016 ft | 432 kts | 132° |
| 2026-05-07 12:40 | 49.38624 | 9.81996 | 32825 ft | 428 kts | 132° |
| 2026-05-07 12:40 | 49.36662 | 9.85399 | 32551 ft | 423 kts | 132° |
| 2026-05-07 12:40 | 49.34716 | 9.88769 | 32286 ft | 421 kts | 132° |
| 2026-05-07 12:40 | 49.32777 | 9.92117 | 32020 ft | 419 kts | 132° |
| 2026-05-07 12:41 | 49.30845 | 9.95444 | 31756 ft | 417 kts | 132° |
| 2026-05-07 12:41 | 49.28909 | 9.98747 | 31507 ft | 416 kts | 133° |
| 2026-05-07 12:41 | 49.26928 | 10.01983 | 31261 ft | 414 kts | 134° |
| 2026-05-07 12:41 | 49.24925 | 10.05136 | 30999 ft | 412 kts | 135° |
| 2026-05-07 12:42 | 49.22907 | 10.08250 | 30748 ft | 411 kts | 135° |
| 2026-05-07 12:42 | 49.20897 | 10.11339 | 30501 ft | 409 kts | 135° |
| 2026-05-07 12:42 | 49.18891 | 10.14428 | 30261 ft | 408 kts | 135° |
| 2026-05-07 12:42 | 49.16901 | 10.17515 | 30010 ft | 407 kts | 135° |
| 2026-05-07 12:43 | 49.14923 | 10.20604 | 29715 ft | 406 kts | 134° |
| 2026-05-07 12:43 | 49.12956 | 10.23684 | 29428 ft | 404 kts | 135° |
| 2026-05-07 12:43 | 49.10995 | 10.26750 | 29142 ft | 403 kts | 135° |
| 2026-05-07 12:43 | 49.09037 | 10.29806 | 28858 ft | 402 kts | 135° |
| 2026-05-07 12:44 | 49.07087 | 10.32844 | 28579 ft | 400 kts | 135° |
| 2026-05-07 12:44 | 49.05141 | 10.35874 | 28298 ft | 398 kts | 135° |
| 2026-05-07 12:44 | 49.03203 | 10.38885 | 28034 ft | 397 kts | 135° |
| 2026-05-07 12:44 | 49.01274 | 10.41880 | 27755 ft | 395 kts | 135° |
| 2026-05-07 12:45 | 48.99381 | 10.44822 | 27494 ft | 393 kts | 135° |
| 2026-05-07 12:45 | 48.97447 | 10.47825 | 27220 ft | 392 kts | 135° |
| 2026-05-07 12:45 | 48.95541 | 10.50777 | 26952 ft | 390 kts | 135° |
| 2026-05-07 12:45 | 48.93667 | 10.53675 | 26694 ft | 388 kts | 135° |
| 2026-05-07 12:46 | 48.91775 | 10.56591 | 26440 ft | 387 kts | 135° |
| 2026-05-07 12:46 | 48.89882 | 10.59497 | 26058 ft | 385 kts | 135° |
| 2026-05-07 12:46 | 48.88002 | 10.62379 | 25679 ft | 383 kts | 135° |
| 2026-05-07 12:46 | 48.86110 | 10.65284 | 25308 ft | 397 kts | 135° |
| 2026-05-07 12:47 | 48.84132 | 10.68316 | 24929 ft | 411 kts | 135° |
| 2026-05-07 12:47 | 48.82106 | 10.71419 | 24433 ft | 413 kts | 136° |
| 2026-05-07 12:47 | 48.80085 | 10.74515 | 23947 ft | 411 kts | 136° |
| 2026-05-07 12:47 | 48.78085 | 10.77582 | 23447 ft | 408 kts | 136° |
| 2026-05-07 12:48 | 48.76092 | 10.80637 | 22886 ft | 405 kts | 136° |
| 2026-05-07 12:48 | 48.74119 | 10.83653 | 22333 ft | 402 kts | 136° |
| 2026-05-07 12:48 | 48.72149 | 10.86650 | 21792 ft | 399 kts | 136° |
| 2026-05-07 12:48 | 48.70198 | 10.89611 | 21265 ft | 396 kts | 136° |
| 2026-05-07 12:49 | 48.68259 | 10.92554 | 20738 ft | 393 kts | 136° |
| 2026-05-07 12:49 | 48.66331 | 10.95481 | 20232 ft | 391 kts | 136° |
| 2026-05-07 12:49 | 48.64445 | 10.98346 | 19737 ft | 389 kts | 136° |
| 2026-05-07 12:49 | 48.62541 | 11.01235 | 19247 ft | 386 kts | 137° |
| 2026-05-07 12:50 | 48.60649 | 11.04102 | 18762 ft | 384 kts | 137° |
| 2026-05-07 12:50 | 48.58769 | 11.06946 | 18288 ft | 382 kts | 137° |
| 2026-05-07 12:50 | 48.56887 | 11.09788 | 17730 ft | 381 kts | 137° |
| 2026-05-07 12:50 | 48.55017 | 11.12604 | 17204 ft | 379 kts | 137° |
| 2026-05-07 12:51 | 48.53170 | 11.15384 | 16999 ft | 371 kts | 137° |
| 2026-05-07 12:51 | 48.51352 | 11.18122 | 17023 ft | 369 kts | 137° |
| 2026-05-07 12:51 | 48.49537 | 11.20853 | 16933 ft | 368 kts | 137° |
| 2026-05-07 12:51 | 48.47732 | 11.23564 | 16499 ft | 365 kts | 137° |
| 2026-05-07 12:52 | 48.45938 | 11.26257 | 16050 ft | 363 kts | 137° |
| 2026-05-07 12:52 | 48.44196 | 11.28992 | 15606 ft | 362 kts | 131° |
| 2026-05-07 12:52 | 48.42854 | 11.32188 | 15175 ft | 362 kts | 116° |
| 2026-05-07 12:52 | 48.42072 | 11.35784 | 14741 ft | 362 kts | 101° |
| 2026-05-07 12:53 | 48.41902 | 11.39547 | 14320 ft | 361 kts | 86° |
| 2026-05-07 12:53 | 48.42186 | 11.43282 | 13898 ft | 359 kts | 82° |
| 2026-05-07 12:53 | 48.42494 | 11.47013 | 13321 ft | 361 kts | 83° |
| 2026-05-07 12:53 | 48.42796 | 11.50766 | 12711 ft | 362 kts | 83° |
| 2026-05-07 12:54 | 48.43094 | 11.54544 | 12112 ft | 363 kts | 83° |
| 2026-05-07 12:54 | 48.43389 | 11.58321 | 11525 ft | 363 kts | 83° |
| 2026-05-07 12:54 | 48.43682 | 11.62103 | 10922 ft | 364 kts | 83° |
| 2026-05-07 12:54 | 48.43973 | 11.65893 | 10315 ft | 365 kts | 83° |
| 2026-05-07 12:55 | 48.44264 | 11.69693 | 9683 ft | 366 kts | 83° |
| 2026-05-07 12:55 | 48.44555 | 11.73495 | 8992 ft | 365 kts | 83° |
| 2026-05-07 12:55 | 48.44844 | 11.77251 | 8336 ft | 355 kts | 83° |
| 2026-05-07 12:55 | 48.45124 | 11.80874 | 7712 ft | 341 kts | 83° |
| 2026-05-07 12:56 | 48.45388 | 11.84311 | 7097 ft | 329 kts | 83° |
| 2026-05-07 12:56 | 48.45646 | 11.87689 | 6477 ft | 320 kts | 83° |
| 2026-05-07 12:56 | 48.45894 | 11.90956 | 6072 ft | 305 kts | 83° |
| 2026-05-07 12:56 | 48.46129 | 11.94062 | 5995 ft | 292 kts | 83° |
| 2026-05-07 12:57 | 48.46359 | 11.97080 | 6006 ft | 290 kts | 83° |
| 2026-05-07 12:57 | 48.46513 | 11.99122 | 6004 ft | 289 kts | 83° |
| 2026-05-07 12:57 | 48.46737 | 12.02131 | 6002 ft | 289 kts | 83° |
| 2026-05-07 12:57 | 48.46958 | 12.05103 | 6004 ft | 289 kts | 83° |
| 2026-05-07 12:58 | 48.47179 | 12.08113 | 6005 ft | 289 kts | 83° |
| 2026-05-07 12:58 | 48.47401 | 12.11119 | 6000 ft | 289 kts | 83° |
| 2026-05-07 12:58 | 48.47619 | 12.14074 | 5993 ft | 275 kts | 83° |
| 2026-05-07 12:58 | 48.47824 | 12.16848 | 5997 ft | 260 kts | 83° |
| 2026-05-07 12:59 | 48.48020 | 12.19535 | 5994 ft | 257 kts | 83° |
| 2026-05-07 12:59 | 48.48214 | 12.22212 | 6001 ft | 257 kts | 83° |
| 2026-05-07 12:59 | 48.48408 | 12.24887 | 5997 ft | 257 kts | 83° |
| 2026-05-07 12:59 | 48.48607 | 12.27569 | 5996 ft | 257 kts | 83° |
| 2026-05-07 13:00 | 48.48809 | 12.30249 | 6000 ft | 257 kts | 83° |
| 2026-05-07 13:00 | 48.48829 | 12.32933 | 5996 ft | 256 kts | 104° |
| 2026-05-07 13:00 | 48.48051 | 12.35288 | 5991 ft | 251 kts | 136° |
| 2026-05-07 13:00 | 48.46633 | 12.36717 | 5993 ft | 245 kts | 164° |
| 2026-05-07 13:01 | 48.44989 | 12.37188 | 5982 ft | 240 kts | 184° |
| 2026-05-07 13:01 | 48.43359 | 12.36806 | 5580 ft | 236 kts | 204° |
| 2026-05-07 13:01 | 48.41948 | 12.35611 | 5190 ft | 232 kts | 224° |
| 2026-05-07 13:01 | 48.40910 | 12.33782 | 4814 ft | 229 kts | 243° |
| 2026-05-07 13:02 | 48.40353 | 12.31550 | 4418 ft | 228 kts | 261° |
| 2026-05-07 13:02 | 48.40166 | 12.29186 | 4046 ft | 228 kts | 265° |
| 2026-05-07 13:02 | 48.40003 | 12.26867 | 3993 ft | 219 kts | 265° |
| 2026-05-07 13:02 | 48.39840 | 12.24597 | 3997 ft | 218 kts | 265° |
| 2026-05-07 13:03 | 48.39675 | 12.22320 | 4000 ft | 219 kts | 265° |
| 2026-05-07 13:03 | 48.39509 | 12.20042 | 3988 ft | 218 kts | 265° |
| 2026-05-07 13:03 | 48.39344 | 12.17765 | 4001 ft | 219 kts | 265° |
| 2026-05-07 13:03 | 48.39180 | 12.15539 | 3996 ft | 208 kts | 264° |
| 2026-05-07 13:04 | 48.39026 | 12.13439 | 3999 ft | 196 kts | 265° |
| 2026-05-07 13:04 | 48.38879 | 12.11438 | 4005 ft | 189 kts | 266° |
| 2026-05-07 13:04 | 48.38740 | 12.09536 | 3993 ft | 176 kts | 265° |
| 2026-05-07 13:04 | 48.38615 | 12.07729 | 4012 ft | 173 kts | 266° |
| 2026-05-07 13:05 | 48.38500 | 12.05956 | 4034 ft | 167 kts | 263° |
| 2026-05-07 13:05 | 48.38358 | 12.04235 | 4023 ft | 166 kts | 264° |
| 2026-05-07 13:05 | 48.38224 | 12.02516 | 4020 ft | 165 kts | 265° |
| 2026-05-07 13:05 | 48.38096 | 12.00813 | 3909 ft | 161 kts | 264° |
| 2026-05-07 13:06 | 48.37971 | 11.99157 | 3734 ft | 161 kts | 264° |
| 2026-05-07 13:06 | 48.37844 | 11.97458 | 3529 ft | 165 kts | 265° |
| 2026-05-07 13:06 | 48.37715 | 11.95738 | 3322 ft | 167 kts | 265° |
| 2026-05-07 13:06 | 48.37585 | 11.94013 | 3087 ft | 164 kts | 264° |
| 2026-05-07 13:07 | 48.37458 | 11.92313 | 2859 ft | 164 kts | 265° |
| 2026-05-07 13:07 | 48.37335 | 11.90687 | 2664 ft | 147 kts | 265° |
| 2026-05-07 13:07 | 48.37224 | 11.89224 | 2466 ft | 138 kts | 266° |
| 2026-05-07 13:07 | 48.37120 | 11.87810 | 2247 ft | 137 kts | 268° |
| 2026-05-07 13:08 | 48.37024 | 11.86392 | 2062 ft | 135 kts | 266° |
| 2026-05-07 13:08 | 48.36911 | 11.85000 | 1944 ft | 136 kts | 266° |
| 2026-05-07 13:08 | 48.36809 | 11.83628 | 1739 ft | 128 kts | 266° |
| 2026-05-07 13:08 | 48.36711 | 11.82307 | 1565 ft | 128 kts | 266° |
| 2026-05-07 13:09 | 48.36616 | 11.81040 | 1485 ft | 106 kts | 263° |
| 2026-05-07 13:09 | 48.36557 | 11.80389 | 1483 ft | 28 kts | 262° |
| 2026-05-07 13:09 | 48.36532 | 11.80054 | 1485 ft | 40 kts | 264° |
| 2026-05-07 13:09 | 48.36473 | 11.79757 | 1478 ft | 28 kts | 240° |
| 2026-05-07 13:10 | 48.36377 | 11.79559 | 1482 ft | 22 kts | 233° |
| 2026-05-07 13:10 | 48.36294 | 11.79384 | 1479 ft | 21 kts | 229° |
| 2026-05-07 13:10 | 48.36195 | 11.79299 | 1485 ft | 17 kts | 178° |
| 2026-05-07 13:10 | 48.36088 | 11.79316 | 1485 ft | 15 kts | 173° |
| 2026-05-07 13:11 | 48.35991 | 11.79333 | 1485 ft | 13 kts | 173° |
| 2026-05-07 13:11 | 48.35910 | 11.79368 | 1478 ft | 12 kts | 150° |
| 2026-05-07 13:11 | 48.35838 | 11.79388 | 1480 ft | 10 kts | 173° |
| 2026-05-07 13:11 | 48.35773 | 11.79399 | 1475 ft | 9 kts | 173° |
| 2026-05-07 13:12 | 48.35695 | 11.79412 | 1482 ft | 16 kts | 174° |
| 2026-05-07 13:12 | 48.35556 | 11.79435 | 1472 ft | 24 kts | 173° |
| 2026-05-07 13:12 | 48.35393 | 11.79464 | 1479 ft | 21 kts | 173° |
| 2026-05-07 13:12 | 48.35277 | 11.79468 | 1478 ft | 9 kts | 234° |
| 2026-05-07 13:13 | 48.35276 | 11.79412 | 1479 ft | 6 kts | 265° |
| 2026-05-07 13:13 | 48.35271 | 11.79342 | 1472 ft | 8 kts | 264° |
| 2026-05-07 13:13 | 48.35270 | 11.79327 | 1474 ft | 0 kts | 264° |